Time;durP1;ratioP1;P1;durP2;ratioP2;P2;SDS_P1;SDS_P2;PMS_P1;PMS_P2;Temp;Humidity;BMP_temperature;BMP_pressure;BME280_temperature;BME280_humidity;BME280_pressure;Samples;Min_cycle;Max_cycle;Signal;HPM_P1;HPM_P2
2023/07/07 08:08:11;;;;;;;3.10;2.35;;;;;;;26.51;62.30;100260.34;5130521;23;20423;-70
2023/07/07 08:10:37;;;;;;;4.25;2.50;;;;;;;26.63;62.73;100255.44;4888951;29;20040;-70
2023/07/07 08:13:02;;;;;;;5.35;2.80;;;;;;;26.75;61.69;100255.03;4891019;29;20381;-70
2023/07/07 08:15:27;;;;;;;4.93;2.63;;;;;;;26.88;62.40;100261.88;4906660;29;20488;-70
2023/07/07 08:17:53;;;;;;;4.10;2.35;;;;;;;27.03;62.08;100259.00;4875276;29;20024;-70
2023/07/07 08:20:19;;;;;;;3.97;2.50;;;;;;;27.17;61.07;100253.28;4875497;29;20047;-71
2023/07/07 08:22:45;;;;;;;4.38;2.25;;;;;;;27.29;60.03;100255.66;4859931;29;20421;-70
2023/07/07 08:25:10;;;;;;;4.55;2.78;;;;;;;27.45;57.19;100248.66;4895503;29;20028;-70
2023/07/07 08:27:35;;;;;;;5.28;2.53;;;;;;;27.58;58.48;100250.63;4871996;29;20037;-70
2023/07/07 08:30:01;;;;;;;4.30;2.40;;;;;;;27.69;57.91;100253.38;4902261;29;20388;-70
2023/07/07 08:32:26;;;;;;;4.88;2.60;;;;;;;27.79;57.66;100258.25;4875468;29;20036;-70
2023/07/07 08:34:52;;;;;;;5.93;2.60;;;;;;;27.89;56.22;100245.13;4890709;29;20032;-70
2023/07/07 08:37:19;;;;;;;8.00;2.78;;;;;;;27.93;54.28;100242.25;4874932;29;20036;-71
2023/07/07 08:39:45;;;;;;;7.07;3.22;;;;;;;28.02;53.13;100243.38;4859908;29;20056;-70
2023/07/07 08:42:37;;;;;;;5.32;3.20;;;;;;;28.18;53.21;100244.91;4896506;29;20079;-70
2023/07/07 08:45:05;;;;;;;4.38;2.53;;;;;;;28.30;54.17;100227.25;4892339;29;20043;-70
2023/07/07 08:47:36;;;;;;;4.80;2.92;;;;;;;28.38;53.95;100231.66;4874835;29;20091;-70
2023/07/07 08:50:09;;;;;;;4.00;2.30;;;;;;;28.53;54.07;100232.38;4890227;29;20040;-70
2023/07/07 08:52:43;;;;;;;;;;;;;;;28.60;52.54;100231.47;4859896;28;20036;-71
2023/07/07 08:55:32;;;;;;;4.90;2.80;;;;;;;28.69;52.77;100229.72;4922804;29;19962;-70
2023/07/07 08:58:40;;;;;;;4.63;3.40;;;;;;;28.80;51.84;100221.03;4890642;29;20392;-70
2023/07/07 09:01:26;;;;;;;5.55;3.47;;;;;;;28.94;51.10;100218.00;4877486;29;20069;-70
2023/07/07 09:04:03;;;;;;;4.05;2.85;;;;;;;29.09;50.45;100218.69;4891455;29;20038;-70
2023/07/07 09:06:56;;;;;;;6.72;3.75;;;;;;;29.20;49.82;100220.56;4905997;29;20115;-70
2023/07/07 09:09:39;;;;;;;8.40;4.15;;;;;;;29.24;48.77;100213.56;4909125;29;20060;-70
2023/07/07 09:12:34;;;;;;;7.78;3.40;;;;;;;29.44;49.97;100207.97;4890018;29;20044;-70
2023/07/07 09:15:00;;;;;;;6.10;3.53;;;;;;;29.52;49.26;100209.47;4895106;29;20032;-70
2023/07/07 09:17:28;;;;;;;7.15;4.30;;;;;;;29.52;47.44;100209.47;4873857;29;20071;-70
2023/07/07 09:19:54;;;;;;;6.70;3.80;;;;;;;29.65;48.36;100206.06;4905699;29;20032;-70
2023/07/07 09:22:24;;;;;;;6.28;3.92;;;;;;;29.70;45.62;100202.69;4873259;29;20032;-70
2023/07/07 09:24:51;;;;;;;6.90;3.92;;;;;;;29.73;46.23;100207.59;4889916;29;20046;-70
2023/07/07 09:27:20;;;;;;;6.88;3.70;;;;;;;29.86;46.86;100202.03;4896425;29;20028;-70
2023/07/07 09:29:46;;;;;;;5.40;3.78;;;;;;;29.92;46.91;100195.41;4905437;29;20032;-70
2023/07/07 09:32:12;;;;;;;8.15;3.85;;;;;;;30.00;44.58;100202.59;4874083;29;20091;-70
2023/07/07 09:34:37;;;;;;;7.90;4.10;;;;;;;30.08;45.90;100196.78;4859108;29;20027;-70
2023/07/07 09:37:06;;;;;;;8.02;3.70;;;;;;;30.15;46.05;100199.53;4889271;29;20032;-70
2023/07/07 09:40:05;;;;;;;6.93;3.95;;;;;;;30.24;47.21;100196.94;4905018;29;20551;-70
2023/07/07 09:42:38;;;;;;;7.63;3.80;;;;;;;30.36;46.35;100202.00;4889218;29;20055;-71
2023/07/07 09:45:07;;;;;;;6.15;3.75;;;;;;;30.48;46.96;100195.66;4887611;29;20119;-71
2023/07/07 09:47:54;;;;;;;5.97;3.58;;;;;;;30.58;46.49;100201.59;4889433;29;20044;-70
2023/07/07 09:50:47;;;;;;;6.53;4.00;;;;;;;30.74;44.17;100198.84;4889162;29;20032;-71
2023/07/07 09:53:20;;;;;;;5.00;4.00;;;;;;;30.90;45.43;100201.81;4884311;29;20040;-71
2023/07/07 09:55:46;;;;;;;5.15;3.50;;;;;;;31.03;44.41;100204.81;4858337;29;20028;-71
2023/07/07 09:58:29;;;;;;;5.20;3.50;;;;;;;31.19;43.73;100192.59;4904871;29;20405;-71
2023/07/07 10:00:59;;;;;;;5.72;3.20;;;;;;;31.31;43.70;100203.38;4902709;29;20046;-71
2023/07/07 10:03:43;;;;;;;7.13;3.40;;;;;;;31.52;42.72;100196.38;4904936;29;20039;-71
2023/07/07 10:06:21;;;;;;;5.00;3.20;;;;;;;31.61;41.87;100207.22;4886167;29;20029;-71
2023/07/07 10:08:47;;;;;;;7.68;3.40;;;;;;;31.75;43.16;100192.53;4878234;29;20476;-71
2023/07/07 10:11:27;;;;;;;5.88;3.55;;;;;;;31.86;42.21;100197.22;4895786;29;20040;-71
2023/07/07 10:13:53;;;;;;;6.00;3.00;;;;;;;31.91;40.75;100188.06;4873708;29;20111;-71
2023/07/07 10:16:32;;;;;;;3.60;2.50;;;;;;;32.04;40.97;100183.25;4876136;29;20110;-71
2023/07/07 10:19:00;;;;;;;4.97;2.90;;;;;;;32.09;40.86;100176.94;4906489;29;20111;-71
2023/07/07 10:21:25;;;;;;;5.70;3.20;;;;;;;32.18;41.30;100180.00;4890993;29;20043;-71
2023/07/07 10:23:51;;;;;;;3.65;2.67;;;;;;;32.33;40.93;100177.53;4888643;29;20028;-71
2023/07/07 10:26:17;;;;;;;5.13;3.28;;;;;;;32.36;40.67;100179.50;4893245;29;20024;-71
2023/07/07 10:28:43;;;;;;;5.20;2.70;;;;;;;32.36;40.21;100178.69;4887444;29;20044;-71
2023/07/07 10:31:09;;;;;;;4.95;2.97;;;;;;;32.43;40.18;100179.31;4888765;29;20028;-71
2023/07/07 10:33:34;;;;;;;8.52;2.88;;;;;;;32.40;40.28;100185.97;4876172;29;20355;-71
2023/07/07 10:36:18;;;;;;;6.00;2.72;;;;;;;32.51;40.46;100184.88;4870890;29;20039;-72
2023/07/07 10:38:47;;;;;;;5.38;2.85;;;;;;;32.55;40.94;100174.91;4890243;29;20036;-71
2023/07/07 10:41:12;;;;;;;5.35;2.90;;;;;;;32.67;41.01;100177.00;4874035;29;20465;-71
2023/07/07 10:43:38;;;;;;;5.28;2.83;;;;;;;32.73;42.00;100168.63;4888300;29;20047;-71
2023/07/07 10:46:11;;;;;;;4.10;3.25;;;;;;;32.83;41.41;100176.16;4872449;29;20043;-71
2023/07/07 10:48:39;;;;;;;8.38;3.28;;;;;;;32.88;40.98;100169.03;4894900;29;20447;-71
2023/07/07 10:51:26;;;;;;;7.97;3.15;;;;;;;33.04;40.21;100171.88;4903777;29;20043;-71
2023/07/07 10:54:02;;;;;;;5.03;2.75;;;;;;;33.18;40.43;100175.56;4887477;29;20113;-71
2023/07/07 10:56:32;;;;;;;6.53;3.20;;;;;;;33.25;39.22;100169.59;4888866;29;20115;-71
2023/07/07 10:59:23;;;;;;;6.72;3.47;;;;;;;33.40;40.35;100159.22;4903845;29;20055;-71
2023/07/07 11:02:13;;;;;;;6.22;3.15;;;;;;;33.51;39.81;100159.69;4904158;29;20425;-71
2023/07/07 11:04:57;;;;;;;6.47;3.20;;;;;;;33.56;39.92;100162.03;4903907;29;20032;-71
2023/07/07 11:07:32;;;;;;;5.53;3.30;;;;;;;33.66;40.21;100154.31;4888458;29;20039;-71
2023/07/07 11:10:07;;;;;;;4.47;2.85;;;;;;;33.78;40.74;100164.19;4875964;29;20052;-71
2023/07/07 11:13:05;;;;;;;5.05;3.08;;;;;;;33.90;41.43;100156.78;4904197;29;20067;-71
2023/07/07 11:15:49;;;;;;;6.28;3.65;;;;;;;33.99;40.43;100154.84;4888253;29;20042;-72
2023/07/07 11:19:05;;;;;;;5.95;3.42;;;;;;;34.10;40.62;100145.84;4899679;29;20408;-71
2023/07/07 11:21:50;;;;;;;6.82;3.15;;;;;;;34.20;40.10;100156.16;4829008;29;20038;-71
2023/07/07 11:24:25;;;;;;;7.32;3.38;;;;;;;34.34;39.63;100146.22;4814418;29;20037;-71
2023/07/07 11:27:08;;;;;;;4.43;3.30;;;;;;;34.42;40.07;100150.44;4813521;29;20030;-72
2023/07/07 11:30:10;;;;;;;7.45;3.53;;;;;;;34.53;38.91;100152.13;4844019;29;20124;-71
2023/07/07 11:32:42;;;;;;;5.43;3.63;;;;;;;34.59;39.26;100144.53;4847320;29;20056;-71
2023/07/07 11:35:25;;;;;;;5.05;3.28;;;;;;;34.69;39.55;100131.78;4846338;29;20049;-71
2023/07/07 11:38:12;;;;;;;6.00;3.90;;;;;;;34.81;38.53;100127.22;4834620;29;20042;-71
2023/07/07 11:40:56;;;;;;;5.13;3.40;;;;;;;34.75;38.45;100132.00;4847462;29;20045;-71
2023/07/07 11:43:39;;;;;;;9.32;3.45;;;;;;;34.81;38.05;100122.25;4847187;29;20099;-71
2023/07/07 11:46:41;;;;;;;6.65;3.80;;;;;;;34.96;38.55;100128.25;4833162;29;20065;-71
2023/07/07 11:49:10;;;;;;;5.22;3.30;;;;;;;35.05;38.24;100122.56;4847224;29;20527;-71
2023/07/07 11:51:45;;;;;;;5.15;2.97;;;;;;;35.21;39.39;100123.59;4831940;29;20046;-71
2023/07/07 11:54:49;;;;;;;7.68;3.50;;;;;;;35.25;37.06;100118.50;4818403;29;20034;-71
2023/07/07 11:57:34;;;;;;;9.05;3.60;;;;;;;35.39;37.41;100126.59;4871454;29;20136;-71
2023/07/07 12:00:20;;;;;;;5.50;3.75;;;;;;;35.46;37.26;100122.59;4905728;29;20044;-71
2023/07/07 12:03:29;;;;;;;8.10;3.40;;;;;;;35.61;36.89;100120.75;4882947;29;20099;-71
2023/07/07 12:05:55;;;;;;;7.85;3.40;;;;;;;35.75;38.46;100117.25;4894887;29;20048;-71
2023/07/07 12:08:24;;;;;;;7.38;3.42;;;;;;;35.78;37.30;100110.53;4875083;29;20119;-71
2023/07/07 12:10:53;;;;;;;8.32;3.17;;;;;;;35.84;36.63;100113.59;4891053;29;20124;-71
2023/07/07 12:13:28;;;;;;;6.88;3.72;;;;;;;35.85;36.57;100109.41;4860322;29;20032;-71
2023/07/07 12:16:19;;;;;;;5.35;3.28;;;;;;;35.90;37.22;100113.75;4893219;29;20046;-72
2023/07/07 12:18:47;;;;;;;5.67;3.63;;;;;;;35.96;36.75;100111.81;4876250;29;20031;-71
2023/07/07 12:21:17;;;;;;;4.97;3.25;;;;;;;35.95;36.36;100111.03;4904066;29;20584;-71
2023/07/07 12:23:55;;;;;;;7.45;3.50;;;;;;;35.93;36.05;100107.81;4873322;29;20032;-71
2023/07/07 12:26:24;;;;;;;5.78;3.22;;;;;;;36.07;37.01;100106.41;4902029;29;20024;-71
2023/07/07 12:28:54;;;;;;;6.38;3.38;;;;;;;36.16;36.90;100103.53;4885755;29;20507;-71
2023/07/07 12:31:20;;;;;;;4.18;3.42;;;;;;;36.26;36.48;100089.88;4891275;29;20063;-72
2023/07/07 12:33:51;;;;;;;5.97;3.58;;;;;;;36.40;36.89;100091.31;4890997;29;20036;-72
2023/07/07 12:36:16;;;;;;;8.98;4.18;;;;;;;36.41;37.28;100087.97;4875762;29;20047;-72
2023/07/07 12:38:42;;;;;;;4.43;3.58;;;;;;;36.58;37.07;100088.44;4906027;29;20032;-72
2023/07/07 12:41:13;;;;;;;5.72;3.25;;;;;;;36.71;36.74;100091.13;4875189;29;20051;-72
2023/07/07 12:43:52;;;;;;;8.48;3.42;;;;;;;36.74;35.41;100084.38;4878629;29;20040;-71
2023/07/07 12:46:27;;;;;;;7.57;3.90;;;;;;;36.81;35.66;100072.47;4891668;29;20092;-71
2023/07/07 12:48:52;;;;;;;6.93;3.78;;;;;;;36.95;35.71;100075.97;4890859;29;20032;-72
2023/07/07 12:51:18;;;;;;;4.68;3.50;;;;;;;37.07;35.54;100067.09;4859533;29;20092;-71
2023/07/07 12:53:45;;;;;;;4.32;3.25;;;;;;;37.18;35.67;100083.13;4889280;29;20036;-71
2023/07/07 12:56:12;;;;;;;6.35;3.45;;;;;;;37.17;34.78;100072.84;4874975;29;20495;-72
2023/07/07 12:58:56;;;;;;;7.60;3.63;;;;;;;37.15;35.25;100084.91;4905839;29;20047;-71
2023/07/07 13:01:28;;;;;;;9.07;3.70;;;;;;;37.09;35.41;100073.19;4875064;29;20110;-71
2023/07/07 13:03:59;;;;;;;6.18;3.25;;;;;;;36.95;35.04;100076.78;4890384;29;20048;-71
2023/07/07 13:06:31;;;;;;;6.13;3.60;;;;;;;36.82;35.56;100061.69;4905570;29;20033;-72
2023/07/07 13:09:20;;;;;;;7.43;3.17;;;;;;;36.80;36.26;100067.97;4917614;29;20456;-72
2023/07/07 13:11:56;;;;;;;5.15;3.53;;;;;;;36.90;36.52;100069.53;4900947;29;20468;-72
2023/07/07 13:14:39;;;;;;;5.97;3.58;;;;;;;36.91;35.13;100058.75;4890408;29;20063;-72
2023/07/07 13:17:11;;;;;;;6.32;3.22;;;;;;;36.98;35.34;100064.22;4890671;29;20462;-72
2023/07/07 13:19:36;;;;;;;;;;;;;;;37.07;35.99;100072.88;4899505;29;20040;-72
2023/07/07 13:22:10;;;;;;;4.38;3.15;;;;;;;37.10;35.92;100051.63;4889627;29;19918;-72
2023/07/07 13:24:40;;;;;;;5.38;3.50;;;;;;;37.06;35.39;100059.72;4874368;29;20052;-72
2023/07/07 13:27:12;;;;;;;4.75;3.30;;;;;;;37.09;35.07;100057.94;4890031;29;20444;-72
2023/07/07 13:29:38;;;;;;;5.18;3.25;;;;;;;36.95;35.11;100056.50;4888183;29;20040;-72
2023/07/07 13:32:04;;;;;;;6.15;3.90;;;;;;;36.87;35.54;100047.38;4884248;29;20047;-72
2023/07/07 13:34:30;;;;;;;6.47;3.50;;;;;;;36.72;35.58;100040.69;4887893;29;20036;-72
2023/07/07 13:36:55;;;;;;;6.03;3.55;;;;;;;36.49;35.35;100039.25;4895161;29;20075;-72
2023/07/07 13:39:21;;;;;;;5.45;3.25;;;;;;;36.48;35.30;100040.53;4889140;29;20062;-72
2023/07/07 13:41:47;;;;;;;6.68;3.60;;;;;;;36.37;35.92;100026.59;4889390;29;20032;-72
2023/07/07 13:44:19;;;;;;;4.95;3.58;;;;;;;36.33;35.98;100030.91;4889077;29;20393;-72
2023/07/07 13:46:49;;;;;;;7.32;3.55;;;;;;;36.46;36.72;100029.44;4871658;29;20036;-72
2023/07/07 13:49:17;;;;;;;5.55;3.58;;;;;;;36.56;36.00;100030.28;4884525;29;20037;-72
2023/07/07 13:51:52;;;;;;;7.65;3.70;;;;;;;36.57;35.79;100023.19;4866472;29;20040;-72
2023/07/07 13:54:23;;;;;;;4.88;3.15;;;;;;;36.66;35.51;100016.56;4890045;29;20040;-72
2023/07/07 13:57:02;;;;;;;5.38;3.58;;;;;;;36.74;35.96;100019.94;4889151;29;20510;-72
2023/07/07 13:59:28;;;;;;;6.88;3.47;;;;;;;36.74;35.69;100014.94;4921843;29;20088;-72
2023/07/07 14:01:53;;;;;;;5.95;3.90;;;;;;;36.65;36.64;100020.78;4904796;29;20024;-72
2023/07/07 14:04:22;;;;;;;9.93;3.80;;;;;;;36.49;37.29;100010.31;4889440;29;20158;-72
2023/07/07 14:06:48;;;;;;;6.43;3.70;;;;;;;36.47;35.85;100012.94;4889118;29;20027;-72
2023/07/07 14:09:39;;;;;;;5.07;3.40;;;;;;;36.39;35.58;100006.66;4882092;29;20057;-72
2023/07/07 14:12:21;;;;;;;7.03;4.00;;;;;;;36.20;35.64;100005.91;4902383;29;20024;-72
2023/07/07 14:14:54;;;;;;;;;;;;;;;36.05;36.33;99999.16;4888125;29;20051;-72
2023/07/07 14:17:33;;;;;;;5.57;3.83;;;;;;;35.83;36.91;100010.06;4911050;29;20002;-72
2023/07/07 14:20:04;;;;;;;6.72;3.60;;;;;;;35.64;37.43;100004.28;4904661;29;20039;-72
2023/07/07 14:22:31;;;;;;;6.40;3.67;;;;;;;35.44;38.88;100006.78;4888867;29;20051;-72
2023/07/07 14:24:56;;;;;;;4.90;3.40;;;;;;;35.31;38.72;100006.91;4877325;29;20523;-72
2023/07/07 14:27:22;;;;;;;7.10;3.67;;;;;;;35.23;38.06;100000.63;4885542;29;20028;-72
2023/07/07 14:29:47;;;;;;;8.57;4.00;;;;;;;35.11;38.47;100002.38;4901591;29;20040;-72
2023/07/07 14:32:16;;;;;;;6.95;4.03;;;;;;;35.04;38.82;100001.84;4889006;29;20043;-72
2023/07/07 14:34:55;;;;;;;6.13;3.90;;;;;;;34.90;39.40;99991.69;4889094;29;20067;-72
2023/07/07 14:37:23;;;;;;;6.93;3.80;;;;;;;34.74;39.64;99995.63;4873228;29;20032;-72
2023/07/07 14:39:50;;;;;;;7.72;3.85;;;;;;;34.76;40.00;99989.38;4873308;29;20032;-72
2023/07/07 14:42:22;;;;;;;8.70;4.03;;;;;;;34.74;40.32;99991.94;4867925;29;20077;-72
2023/07/07 14:44:52;;;;;;;9.15;4.47;;;;;;;34.72;40.57;99985.84;4892447;29;20032;-72
2023/07/07 14:47:21;;;;;;;6.90;3.90;;;;;;;34.68;41.01;99978.13;4888439;29;20052;-72
2023/07/07 14:49:47;;;;;;;7.47;3.67;;;;;;;34.73;41.11;99988.25;4904502;29;20048;-72
2023/07/07 14:52:37;;;;;;;5.50;3.55;;;;;;;34.73;40.57;99979.59;4873042;29;20388;-72
2023/07/07 14:55:11;;;;;;;8.57;4.13;;;;;;;34.78;40.45;99978.19;4903840;29;20412;-72
2023/07/07 14:57:43;;;;;;;8.68;4.03;;;;;;;34.81;40.77;99977.22;4906939;29;20039;-72
2023/07/07 15:00:31;;;;;;;5.47;3.90;;;;;;;34.84;39.82;99967.63;4886166;29;20037;-72
2023/07/07 15:02:57;;;;;;;7.15;4.05;;;;;;;34.77;40.85;99965.84;4904215;29;20056;-72
2023/07/07 15:05:30;;;;;;;5.47;3.83;;;;;;;34.73;41.07;99959.41;4872915;29;20067;-72
2023/07/07 15:08:10;;;;;;;10.20;4.30;;;;;;;34.70;41.45;99951.72;4892092;29;20048;-72
2023/07/07 15:10:40;;;;;;;7.38;4.25;;;;;;;34.74;41.53;99945.78;4878416;29;20484;-72
2023/07/07 15:13:13;;;;;;;7.35;4.13;;;;;;;34.81;42.08;99965.69;4877857;29;20519;-72
2023/07/07 15:15:38;;;;;;;8.00;4.18;;;;;;;34.88;41.49;99959.63;4895611;29;20032;-72
2023/07/07 15:18:04;;;;;;;8.07;4.28;;;;;;;34.90;41.37;99966.53;4882602;29;20067;-72
2023/07/07 15:20:29;;;;;;;5.00;4.05;;;;;;;34.93;41.47;99961.88;4907611;29;20480;-72
2023/07/07 15:22:55;;;;;;;8.93;3.85;;;;;;;34.95;41.44;99961.41;4876400;29;20028;-72
2023/07/07 15:25:20;;;;;;;6.32;3.97;;;;;;;34.85;41.14;99954.81;4864815;29;20032;-72
2023/07/07 15:27:46;;;;;;;9.02;4.22;;;;;;;34.83;40.30;99954.50;4891722;29;20333;-72
2023/07/07 15:30:13;;;;;;;9.55;3.97;;;;;;;34.75;40.42;99953.97;4892214;29;20485;-72
2023/07/07 15:32:40;;;;;;;6.57;4.63;;;;;;;34.64;40.29;99956.50;4891778;29;20028;-72
2023/07/07 15:35:16;;;;;;;7.00;3.92;;;;;;;34.56;40.18;99949.41;4892333;29;20040;-72
2023/07/07 15:37:42;;;;;;;7.25;4.03;;;;;;;34.45;41.29;99944.84;4906810;29;20047;-72
2023/07/07 15:40:16;;;;;;;8.60;4.35;;;;;;;34.42;41.45;99937.13;4891815;29;20115;-72
2023/07/07 15:42:41;;;;;;;7.07;3.88;;;;;;;34.29;41.99;99941.38;4901589;29;20051;-72
2023/07/07 15:45:09;;;;;;;6.00;4.18;;;;;;;34.20;42.54;99933.50;4891394;29;20032;-72
2023/07/07 15:47:34;;;;;;;8.63;4.53;;;;;;;34.15;42.48;99931.22;4887841;29;20052;-72
2023/07/07 15:50:00;;;;;;;7.35;4.03;;;;;;;34.11;42.75;99930.56;4888510;29;20488;-71
2023/07/07 15:52:25;;;;;;;6.65;4.03;;;;;;;34.06;42.81;99931.16;4888178;29;20512;-71
2023/07/07 15:54:51;;;;;;;5.60;4.07;;;;;;;33.97;43.35;99932.69;4891625;29;20032;-72
2023/07/07 15:57:19;;;;;;;8.18;4.32;;;;;;;33.91;43.20;99931.69;4905512;29;20039;-72
2023/07/07 15:59:45;;;;;;;7.75;4.22;;;;;;;33.91;43.88;99931.69;4873913;29;20029;-72
2023/07/07 16:02:15;;;;;;;9.13;4.22;;;;;;;33.88;42.85;99928.91;4901125;29;20039;-72
2023/07/07 16:04:41;;;;;;;6.40;4.35;;;;;;;33.83;43.38;99920.91;4887909;29;20124;-71
2023/07/07 16:07:15;;;;;;;5.32;4.28;;;;;;;33.79;43.09;99916.09;4904824;29;20024;-71
2023/07/07 16:09:41;;;;;;;7.57;4.10;;;;;;;33.76;43.86;99916.19;4880639;29;20402;-72
2023/07/07 16:12:19;;;;;;;6.65;4.28;;;;;;;33.74;43.04;99912.97;4904598;29;20088;-72
2023/07/07 16:14:44;;;;;;;6.70;4.55;;;;;;;33.71;44.08;99909.00;4906429;29;20485;-72
2023/07/07 16:17:19;;;;;;;9.05;4.50;;;;;;;33.69;44.49;99904.97;4897127;29;20032;-72
2023/07/07 16:19:44;;;;;;;6.55;4.47;;;;;;;33.63;42.90;99904.78;4890815;29;20028;-72
2023/07/07 16:22:13;;;;;;;9.45;4.78;;;;;;;33.65;43.37;99912.91;4906594;29;20142;-72
2023/07/07 16:24:39;;;;;;;6.20;3.92;;;;;;;33.61;43.07;99906.50;4888612;29;20082;-72
2023/07/07 16:27:08;;;;;;;9.90;4.50;;;;;;;33.59;43.98;99907.75;4875466;29;20502;-72
2023/07/07 16:29:33;;;;;;;8.77;4.60;;;;;;;33.59;44.44;99906.97;4875298;29;20073;-72
2023/07/07 16:31:59;;;;;;;7.03;4.43;;;;;;;33.59;44.01;99907.75;4891100;29;20472;-72
2023/07/07 16:34:24;;;;;;;6.95;4.38;;;;;;;33.51;44.43;99894.06;4889384;29;20032;-72
2023/07/07 16:36:50;;;;;;;5.78;4.07;;;;;;;33.48;43.63;99903.63;4874936;29;20040;-71
2023/07/07 16:39:16;;;;;;;6.32;4.18;;;;;;;33.42;44.00;99891.91;4906440;29;20047;-72
2023/07/07 16:41:42;;;;;;;9.90;4.50;;;;;;;33.42;43.83;99889.03;4890797;29;20032;-72
2023/07/07 16:44:08;;;;;;;8.80;4.20;;;;;;;33.42;44.01;99877.53;4890147;29;20500;-72
2023/07/07 16:46:33;;;;;;;8.93;4.45;;;;;;;33.47;45.04;99882.69;4906041;29;20605;-71
2023/07/07 16:48:58;;;;;;;9.63;4.38;;;;;;;33.44;44.53;99872.13;4890401;29;20506;-72
2023/07/07 16:51:26;;;;;;;8.05;4.70;;;;;;;33.46;44.41;99878.22;4890517;29;20035;-72
2023/07/07 16:53:51;;;;;;;4.75;3.95;;;;;;;33.48;44.99;99878.53;4906044;29;20051;-72
2023/07/07 16:56:22;;;;;;;10.18;4.30;;;;;;;33.51;44.88;99871.84;4875056;29;20048;-72
2023/07/07 16:58:49;;;;;;;7.68;4.45;;;;;;;33.53;45.31;99871.41;4905848;29;20502;-72
2023/07/07 17:01:14;;;;;;;6.97;4.18;;;;;;;33.49;44.01;99868.66;4889442;29;20038;-72
2023/07/07 17:03:40;;;;;;;7.05;4.43;;;;;;;33.48;45.20;99872.78;4890336;29;20127;-71
2023/07/07 17:06:30;;;;;;;7.75;4.32;;;;;;;33.53;45.71;99862.78;4859312;29;20032;-71
2023/07/07 17:08:56;;;;;;;6.20;4.32;;;;;;;33.50;45.81;99864.50;4876452;29;20500;-71
2023/07/07 17:11:29;;;;;;;6.20;4.05;;;;;;;33.48;45.21;99867.03;4885361;29;20032;-72
2023/07/07 17:13:55;;;;;;;7.85;4.10;;;;;;;33.47;45.27;99861.75;4879952;29;20067;-71
2023/07/07 17:16:22;;;;;;;8.82;4.45;;;;;;;33.42;45.58;99854.50;4893432;29;20035;-72
2023/07/07 17:18:53;;;;;;;7.57;4.50;;;;;;;33.37;45.90;99847.25;4859051;29;20036;-71
2023/07/07 17:21:18;;;;;;;10.93;4.10;;;;;;;33.33;47.13;99843.72;4902543;29;20060;-71
2023/07/07 17:23:45;;;;;;;8.60;4.25;;;;;;;33.27;48.11;99841.94;4858742;29;20468;-72
2023/07/07 17:26:39;;;;;;;5.65;4.30;;;;;;;33.23;46.85;99850.66;4905083;29;20032;-71
2023/07/07 17:29:09;;;;;;;8.20;4.32;;;;;;;33.12;45.65;99850.25;4900710;29;20493;-71
2023/07/07 17:31:35;;;;;;;7.57;4.30;;;;;;;33.00;46.17;99842.47;4859112;29;20174;-71
2023/07/07 17:34:00;;;;;;;7.25;4.15;;;;;;;32.92;46.32;99841.88;4880625;29;20029;-71
2023/07/07 17:36:30;;;;;;;7.18;4.55;;;;;;;32.81;46.36;99848.00;4858703;29;20489;-72
2023/07/07 17:38:57;;;;;;;6.60;4.50;;;;;;;32.72;46.61;99842.97;4876423;29;20552;-71
2023/07/07 17:41:24;;;;;;;6.68;3.80;;;;;;;32.68;46.69;99845.16;4889415;29;20036;-72
2023/07/07 17:43:49;;;;;;;6.53;4.28;;;;;;;32.60;47.33;99840.94;4889714;29;20036;-72
2023/07/07 17:46:21;;;;;;;8.10;4.45;;;;;;;32.58;47.16;99840.56;4888379;29;20036;-72
2023/07/07 17:48:47;;;;;;;6.43;4.20;;;;;;;32.52;47.11;99836.69;4904750;29;20036;-72
2023/07/07 17:51:12;;;;;;;7.70;4.50;;;;;;;32.45;48.21;99834.81;4889332;29;20039;-72
2023/07/07 17:53:38;;;;;;;6.25;4.68;;;;;;;32.39;47.36;99835.84;4873228;29;20036;-72
2023/07/07 17:56:07;;;;;;;5.88;4.38;;;;;;;32.30;47.69;99825.06;4889486;29;20036;-72
2023/07/07 17:58:33;;;;;;;7.72;3.90;;;;;;;32.25;47.82;99834.25;4904366;29;20390;-72
2023/07/07 18:01:00;;;;;;;7.60;4.43;;;;;;;32.17;47.66;99836.53;4904737;29;20035;-71
2023/07/07 18:03:26;;;;;;;6.25;4.28;;;;;;;32.16;48.25;99825.53;4921524;29;20043;-71
2023/07/07 18:05:51;;;;;;;8.90;3.92;;;;;;;32.06;48.29;99827.47;4912725;29;20032;-71
2023/07/07 18:08:17;;;;;;;9.35;4.70;;;;;;;32.03;49.10;99822.63;4886212;29;20049;-71
2023/07/07 18:10:42;;;;;;;6.78;4.60;;;;;;;32.01;49.25;99820.25;4888212;29;20036;-72
2023/07/07 18:13:08;;;;;;;7.57;4.60;;;;;;;31.94;49.72;99816.78;4904653;29;20036;-71
2023/07/07 18:15:33;;;;;;;5.90;3.90;;;;;;;31.88;50.00;99821.44;4857870;29;20039;-72
2023/07/07 18:17:58;;;;;;;6.75;4.40;;;;;;;31.83;51.41;99829.34;4887354;29;20044;-71
2023/07/07 18:20:34;;;;;;;6.93;4.47;;;;;;;31.81;51.63;99836.81;4888914;29;20105;-71
2023/07/07 18:23:00;;;;;;;6.90;4.50;;;;;;;31.78;51.82;99852.09;4903841;29;20044;-71
2023/07/07 18:25:26;;;;;;;9.15;4.45;;;;;;;31.74;53.98;99883.78;4920107;29;20099;-72
2023/07/07 18:27:51;;;;;;;11.30;5.10;;;;;;;31.56;75.06;99878.53;4888595;29;20484;-71
2023/07/07 18:30:24;;;;;;;10.45;5.07;;;;;;;31.30;86.86;99873.94;4888766;29;20031;-72
2023/07/07 18:32:49;;;;;;;;;;;;;;;31.07;94.67;99880.72;4920767;29;20110;-72
2023/07/07 18:35:14;;;;;;;10.60;4.63;;;;;;;30.68;95.34;99882.50;4921245;29;19965;-71
2023/07/07 18:37:40;;;;;;;9.98;5.68;;;;;;;30.41;98.75;99895.00;4903781;29;20286;-71
2023/07/07 18:40:19;;;;;;;11.25;5.95;;;;;;;30.17;100.00;99884.88;4904165;29;20032;-71
2023/07/07 18:42:45;;;;;;;9.23;5.45;;;;;;;29.94;100.00;99874.34;4903899;29;20052;-71
2023/07/07 18:45:11;;;;;;;9.85;5.65;;;;;;;29.58;100.00;99870.16;4888579;29;20389;-71
2023/07/07 18:47:36;;;;;;;14.00;5.25;;;;;;;29.43;100.00;99859.47;4904235;29;20091;-71
2023/07/07 18:50:13;;;;;;;12.88;5.32;;;;;;;29.25;100.00;99849.16;4892146;29;20029;-71
2023/07/07 18:52:39;;;;;;;11.57;5.00;;;;;;;29.09;100.00;99846.22;4869325;29;20040;-71
2023/07/07 18:55:05;;;;;;;8.00;4.95;;;;;;;28.92;100.00;99846.09;4883838;29;20037;-70
2023/07/07 18:57:30;;;;;;;9.90;5.50;;;;;;;28.77;100.00;99852.47;4872545;29;20032;-71
2023/07/07 18:59:55;;;;;;;8.85;5.30;;;;;;;28.64;100.00;99858.00;4904274;29;20039;-70
2023/07/07 19:02:21;;;;;;;9.32;5.15;;;;;;;28.54;100.00;99861.84;4873168;29;20032;-70
2023/07/07 19:04:46;;;;;;;8.88;5.20;;;;;;;28.45;100.00;99871.78;4903907;29;20068;-70
2023/07/07 19:07:12;;;;;;;9.15;5.20;;;;;;;28.32;100.00;99865.00;4857588;29;20028;-70
2023/07/07 19:09:37;;;;;;;8.07;5.10;;;;;;;28.22;100.00;99865.97;4877857;29;20050;-70
2023/07/07 19:12:07;;;;;;;7.40;5.00;;;;;;;28.13;100.00;99860.78;4888158;29;20495;-70
2023/07/07 19:14:32;;;;;;;7.72;4.75;;;;;;;28.04;100.00;99860.53;4873466;29;20110;-70
2023/07/07 19:16:58;;;;;;;9.70;5.20;;;;;;;27.95;100.00;99863.09;4921887;29;20055;-70
2023/07/07 19:19:24;;;;;;;9.05;4.90;;;;;;;27.86;100.00;99875.06;4919684;29;20035;-70
2023/07/07 19:21:50;;;;;;;6.82;4.93;;;;;;;27.77;100.00;99878.38;4903846;29;20496;-70
2023/07/07 19:24:15;;;;;;;8.52;5.00;;;;;;;27.70;100.00;99875.63;4888306;29;20032;-70
2023/07/07 19:26:50;;;;;;;10.80;5.53;;;;;;;27.61;100.00;99875.34;4903951;29;20096;-70
2023/07/07 19:29:16;;;;;;;11.02;4.68;;;;;;;27.52;100.00;99866.47;4888219;29;20040;-70
2023/07/07 19:31:41;;;;;;;6.93;4.55;;;;;;;27.45;100.00;99873.06;4920671;29;20039;-70
2023/07/07 19:34:07;;;;;;;7.45;5.03;;;;;;;27.36;100.00;99875.63;4903748;29;20039;-70
2023/07/07 19:36:35;;;;;;;7.45;4.82;;;;;;;27.28;100.00;99880.59;4887821;29;20381;-70
2023/07/07 19:39:00;;;;;;;7.03;4.80;;;;;;;27.18;100.00;99872.94;4888651;29;20028;-70
2023/07/07 19:41:33;;;;;;;7.75;4.90;;;;;;;27.08;100.00;99883.22;4887936;29;20496;-70
2023/07/07 19:43:58;;;;;;;;;;;;;;;27.02;100.00;99884.06;4888681;29;20392;-70
2023/07/07 19:46:34;;;;;;;7.47;4.60;;;;;;;26.91;100.00;99898.41;4903682;29;19911;-70
2023/07/07 19:49:00;;;;;;;8.55;4.72;;;;;;;26.83;100.00;99909.06;4886193;29;20511;-70
2023/07/07 19:51:31;;;;;;;7.00;4.72;;;;;;;26.72;100.00;99900.63;4888156;29;20040;-70
2023/07/07 19:53:57;;;;;;;7.15;4.90;;;;;;;26.65;100.00;99911.25;4906567;29;20032;-70
2023/07/07 19:56:23;;;;;;;6.97;4.05;;;;;;;26.55;100.00;99909.28;4906964;29;20107;-70